PWSweather.com
Personal Weather Stations
Station Observations
KMDSOLOM1
solomons, Solomons, MD 20688

solomonsSolomons, MD 20688

Lat: 38.32, Lon: -76.45

Elevation: 5

Station Type:

http://www.act-us.info/weather

High Low Average
Temperature 79.3°F26.3°C 65.9°F18.8°C 71.8°F22.1°C
Dew Point 73.1°F22.8°C 51.4°F10.8°C 59.6°F15.3°C
Winds 21.0 mph 33.8 kmh Calm Calm 7.0 mph SW11.3 kmh SW
Wind Gusts 31.0 mph49.9 kmh -- 14.0 mph22.5 kmh
Humidity 96% 38% 68%
Pressure 30.03 in1016.9 mb 29.76 in1007.8 mb -
Precipitation 0.00 in0.0 mm - -
Hour Temp Dew Point Humidity Winds Wind Gusts Pressure Precip Precip Rate Daily Precip Total
12:00 AM 74.6°F23.7°C 73.1°F22.8°C 95% Calm Calm -- 29.79 in1008.8 mb 0.00 in0.0 mm 0.00 in0.0 mm 0.00 in0.0 mm
12:05 AM 74.6°F23.7°C 73.1°F22.8°C 95% 1.0 mph ESE1.6 kmh ESE 1.0 mph1.6 kmh 29.79 in1008.8 mb 0.00 in0.0 mm 0.00 in0.0 mm 0.00 in0.0 mm
12:10 AM 74.6°F23.7°C 73.4°F23.0°C 96% Calm Calm 4.0 mph6.4 kmh 29.79 in1008.8 mb 0.00 in0.0 mm 0.00 in0.0 mm 0.00 in0.0 mm
12:15 AM 74.6°F23.7°C 73.4°F23.0°C 96% Calm Calm 1.0 mph1.6 kmh 29.79 in1008.8 mb 0.00 in0.0 mm 0.00 in0.0 mm 0.00 in0.0 mm
12:20 AM 74.5°F23.6°C 73.3°F22.9°C 96% 1.0 mph ESE1.6 kmh ESE 4.0 mph6.4 kmh 29.79 in1008.8 mb 0.00 in0.0 mm 0.00 in0.0 mm 0.00 in0.0 mm
12:25 AM 74.5°F23.6°C 73.3°F22.9°C 96% Calm Calm 4.0 mph6.4 kmh 29.79 in1008.8 mb 0.00 in0.0 mm 0.00 in0.0 mm 0.00 in0.0 mm
12:30 AM 74.5°F23.6°C 73.3°F22.9°C 96% Calm Calm 2.0 mph3.2 kmh 29.79 in1008.8 mb 0.00 in0.0 mm 0.00 in0.0 mm 0.00 in0.0 mm
12:35 AM 74.4°F23.6°C 73.2°F22.9°C 96% 1.0 mph ESE1.6 kmh ESE 4.0 mph6.4 kmh 29.79 in1008.8 mb 0.00 in0.0 mm 0.00 in0.0 mm 0.00 in0.0 mm
12:40 AM 74.4°F23.6°C 73.2°F22.9°C 96% Calm Calm 4.0 mph6.4 kmh 29.79 in1008.8 mb 0.00 in0.0 mm 0.00 in0.0 mm 0.00 in0.0 mm
12:45 AM 74.4°F23.6°C 73.2°F22.9°C 96% 1.0 mph ESE1.6 kmh ESE 4.0 mph6.4 kmh 29.79 in1008.8 mb 0.01 in0.3 mm 0.12 in3.0 mm 0.01 in0.3 mm
12:50 AM 74.3°F23.5°C 73.1°F22.8°C 96% 1.0 mph ESE1.6 kmh ESE 4.0 mph6.4 kmh 29.79 in1008.8 mb 0.01 in0.3 mm 0.00 in0.0 mm 0.01 in0.3 mm
12:55 AM 74.3°F23.5°C 73.1°F22.8°C 96% 2.0 mph SE3.2 kmh SE 5.0 mph8.0 kmh 29.78 in1008.5 mb 0.01 in0.3 mm 0.00 in0.0 mm 0.01 in0.3 mm
01:00 AM 74.3°F23.5°C 73.1°F22.8°C 96% 2.0 mph SE3.2 kmh SE 2.0 mph3.2 kmh 29.78 in1008.5 mb 0.01 in0.3 mm 0.00 in0.0 mm 0.01 in0.3 mm
01:05 AM 74.3°F23.5°C 73.1°F22.8°C 96% 1.0 mph SE1.6 kmh SE 3.0 mph4.8 kmh 29.78 in1008.5 mb 0.01 in0.3 mm 0.00 in0.0 mm 0.01 in0.3 mm
01:10 AM 74.3°F23.5°C 73.1°F22.8°C 96% Calm Calm 4.0 mph6.4 kmh 29.78 in1008.5 mb 0.01 in0.3 mm 0.00 in0.0 mm 0.01 in0.3 mm
01:15 AM 74.2°F23.4°C 73.0°F22.8°C 96% Calm Calm 2.0 mph3.2 kmh 29.78 in1008.5 mb 0.01 in0.3 mm 0.00 in0.0 mm 0.01 in0.3 mm
01:20 AM 74.2°F23.4°C 72.7°F22.6°C 95% 1.0 mph SE1.6 kmh SE 3.0 mph4.8 kmh 29.77 in1008.1 mb 0.01 in0.3 mm 0.00 in0.0 mm 0.01 in0.3 mm
01:25 AM 74.2°F23.4°C 73.0°F22.8°C 96% 3.0 mph SE4.8 kmh SE 4.0 mph6.4 kmh 29.78 in1008.5 mb 0.01 in0.3 mm 0.00 in0.0 mm 0.01 in0.3 mm
01:30 AM 74.1°F23.4°C 72.9°F22.7°C 96% Calm Calm 3.0 mph4.8 kmh 29.77 in1008.1 mb 0.01 in0.3 mm 0.00 in0.0 mm 0.01 in0.3 mm
01:35 AM 74.2°F23.4°C 73.0°F22.8°C 96% 1.0 mph SE1.6 kmh SE 3.0 mph4.8 kmh 29.77 in1008.1 mb 0.01 in0.3 mm 0.00 in0.0 mm 0.01 in0.3 mm
01:40 AM 74.1°F23.4°C 72.9°F22.7°C 96% Calm Calm 3.0 mph4.8 kmh 29.77 in1008.1 mb 0.01 in0.3 mm 0.00 in0.0 mm 0.01 in0.3 mm
01:45 AM 74.1°F23.4°C 72.9°F22.7°C 96% Calm Calm -- 29.77 in1008.1 mb 0.01 in0.3 mm 0.00 in0.0 mm 0.01 in0.3 mm
01:50 AM 74.1°F23.4°C 72.9°F22.7°C 96% 2.0 mph SE3.2 kmh SE 2.0 mph3.2 kmh 29.77 in1008.1 mb 0.01 in0.3 mm 0.00 in0.0 mm 0.01 in0.3 mm
01:55 AM 74.0°F23.3°C 72.8°F22.7°C 96% 2.0 mph SE3.2 kmh SE 4.0 mph6.4 kmh 29.77 in1008.1 mb 0.01 in0.3 mm 0.00 in0.0 mm 0.01 in0.3 mm
02:00 AM 74.0°F23.3°C 72.8°F22.7°C 96% 3.0 mph SE4.8 kmh SE 3.0 mph4.8 kmh 29.77 in1008.1 mb 0.00 in0.0 mm 0.00 in0.0 mm 0.01 in0.3 mm
02:05 AM 74.0°F23.3°C 72.8°F22.7°C 96% Calm Calm 3.0 mph4.8 kmh 29.77 in1008.1 mb 0.00 in0.0 mm 0.00 in0.0 mm 0.01 in0.3 mm
02:10 AM 74.0°F23.3°C 72.8°F22.7°C 96% Calm Calm 3.0 mph4.8 kmh 29.77 in1008.1 mb 0.00 in0.0 mm 0.00 in0.0 mm 0.01 in0.3 mm
02:15 AM 74.0°F23.3°C 72.8°F22.7°C 96% Calm Calm 3.0 mph4.8 kmh 29.77 in1008.1 mb 0.00 in0.0 mm 0.00 in0.0 mm 0.01 in0.3 mm
02:20 AM 73.9°F23.3°C 72.7°F22.6°C 96% 3.0 mph SE4.8 kmh SE 3.0 mph4.8 kmh 29.77 in1008.1 mb 0.00 in0.0 mm 0.00 in0.0 mm 0.01 in0.3 mm
02:25 AM 73.9°F23.3°C 72.7°F22.6°C 96% 3.0 mph SE4.8 kmh SE 4.0 mph6.4 kmh 29.77 in1008.1 mb 0.00 in0.0 mm 0.00 in0.0 mm 0.01 in0.3 mm
02:30 AM 73.9°F23.3°C 72.7°F22.6°C 96% 3.0 mph SE4.8 kmh SE 5.0 mph8.0 kmh 29.77 in1008.1 mb 0.00 in0.0 mm 0.00 in0.0 mm 0.01 in0.3 mm
02:35 AM 73.9°F23.3°C 72.7°F22.6°C 96% 3.0 mph SE4.8 kmh SE 5.0 mph8.0 kmh 29.77 in1008.1 mb 0.00 in0.0 mm 0.00 in0.0 mm 0.01 in0.3 mm
02:40 AM 73.8°F23.2°C 72.6°F22.6°C 96% 2.0 mph SE3.2 kmh SE 5.0 mph8.0 kmh 29.77 in1008.1 mb 0.00 in0.0 mm 0.00 in0.0 mm 0.01 in0.3 mm
02:45 AM 73.9°F23.3°C 72.7°F22.6°C 96% 2.0 mph SE3.2 kmh SE 6.0 mph9.7 kmh 29.76 in1007.8 mb 0.00 in0.0 mm 0.00 in0.0 mm 0.01 in0.3 mm
02:50 AM 73.8°F23.2°C 72.6°F22.6°C 96% 2.0 mph SSE3.2 kmh SSE 8.0 mph12.9 kmh 29.76 in1007.8 mb 0.00 in0.0 mm 0.00 in0.0 mm 0.01 in0.3 mm
02:55 AM 73.8°F23.2°C 72.6°F22.6°C 96% 3.0 mph S4.8 kmh S 9.0 mph14.5 kmh 29.76 in1007.8 mb 0.00 in0.0 mm 0.00 in0.0 mm 0.01 in0.3 mm
03:00 AM 73.8°F23.2°C 72.6°F22.6°C 96% 3.0 mph S4.8 kmh S 7.0 mph11.3 kmh 29.76 in1007.8 mb 0.00 in0.0 mm 0.00 in0.0 mm 0.01 in0.3 mm
03:05 AM 73.8°F23.2°C 72.6°F22.6°C 96% 4.0 mph S6.4 kmh S 7.0 mph11.3 kmh 29.76 in1007.8 mb 0.00 in0.0 mm 0.00 in0.0 mm 0.01 in0.3 mm
03:10 AM 73.8°F23.2°C 72.6°F22.6°C 96% 11.0 mph SW17.7 kmh SW 11.0 mph17.7 kmh 29.77 in1008.1 mb 0.00 in0.0 mm 0.00 in0.0 mm 0.01 in0.3 mm
03:15 AM 72.6°F22.6°C 70.8°F21.6°C 94% 19.0 mph SW30.6 kmh SW 19.0 mph30.6 kmh 29.78 in1008.5 mb 0.00 in0.0 mm 0.00 in0.0 mm 0.01 in0.3 mm
03:20 AM 71.5°F21.9°C 69.7°F20.9°C 94% 12.0 mph SW19.3 kmh SW 23.0 mph37.0 kmh 29.78 in1008.5 mb 0.01 in0.3 mm 0.12 in3.0 mm 0.02 in0.5 mm
03:25 AM 70.9°F21.6°C 69.1°F20.6°C 94% 10.0 mph SW16.1 kmh SW 23.0 mph37.0 kmh 29.78 in1008.5 mb 0.01 in0.3 mm 0.00 in0.0 mm 0.02 in0.5 mm
03:30 AM 70.5°F21.4°C 68.4°F20.2°C 93% 9.0 mph SSW14.5 kmh SSW 18.0 mph29.0 kmh 29.78 in1008.5 mb 0.01 in0.3 mm 0.00 in0.0 mm 0.02 in0.5 mm
03:35 AM 70.2°F21.2°C 68.1°F20.1°C 93% 11.0 mph SW17.7 kmh SW 19.0 mph30.6 kmh 29.79 in1008.8 mb 0.01 in0.3 mm 0.00 in0.0 mm 0.02 in0.5 mm
03:40 AM 70.0°F21.1°C 67.6°F19.8°C 92% 8.0 mph SW12.9 kmh SW 19.0 mph30.6 kmh 29.79 in1008.8 mb 0.01 in0.3 mm 0.00 in0.0 mm 0.02 in0.5 mm
03:45 AM 69.9°F21.1°C 67.5°F19.7°C 92% 7.0 mph SW11.3 kmh SW 18.0 mph29.0 kmh 29.79 in1008.8 mb 0.01 in0.3 mm 0.00 in0.0 mm 0.02 in0.5 mm
03:50 AM 69.8°F21.0°C 67.4°F19.7°C 92% 11.0 mph WSW17.7 kmh WSW 20.0 mph32.2 kmh 29.79 in1008.8 mb 0.01 in0.3 mm 0.00 in0.0 mm 0.02 in0.5 mm
03:55 AM 69.8°F21.0°C 67.4°F19.7°C 92% 10.0 mph SW16.1 kmh SW 20.0 mph32.2 kmh 29.79 in1008.8 mb 0.01 in0.3 mm 0.00 in0.0 mm 0.02 in0.5 mm
04:00 AM 69.6°F20.9°C 67.2°F19.6°C 92% 6.0 mph SW9.7 kmh SW 14.0 mph22.5 kmh 29.79 in1008.8 mb 0.01 in0.3 mm 0.00 in0.0 mm 0.02 in0.5 mm
04:05 AM 69.6°F20.9°C 67.2°F19.6°C 92% 5.0 mph SW8.0 kmh SW 14.0 mph22.5 kmh 29.80 in1009.1 mb 0.01 in0.3 mm 0.00 in0.0 mm 0.02 in0.5 mm
04:10 AM 69.4°F20.8°C 67.3°F19.6°C 93% 4.0 mph SW6.4 kmh SW 14.0 mph22.5 kmh 29.80 in1009.1 mb 0.01 in0.3 mm 0.00 in0.0 mm 0.02 in0.5 mm
04:15 AM 69.4°F20.8°C 67.3°F19.6°C 93% 10.0 mph SW16.1 kmh SW 12.0 mph19.3 kmh 29.80 in1009.1 mb 0.01 in0.3 mm 0.00 in0.0 mm 0.02 in0.5 mm
04:20 AM 69.5°F20.8°C 67.7°F19.8°C 94% 6.0 mph SW9.7 kmh SW 17.0 mph27.4 kmh 29.80 in1009.1 mb 0.01 in0.3 mm 0.00 in0.0 mm 0.02 in0.5 mm
04:25 AM 69.5°F20.8°C 67.7°F19.8°C 94% 8.0 mph SW12.9 kmh SW 17.0 mph27.4 kmh 29.81 in1009.5 mb 0.01 in0.3 mm 0.00 in0.0 mm 0.02 in0.5 mm
04:30 AM 69.4°F20.8°C 67.6°F19.8°C 94% 10.0 mph WSW16.1 kmh WSW 17.0 mph27.4 kmh 29.81 in1009.5 mb 0.00 in0.0 mm 0.00 in0.0 mm 0.02 in0.5 mm
04:35 AM 69.3°F20.7°C 67.5°F19.7°C 94% 6.0 mph SW9.7 kmh SW 17.0 mph27.4 kmh 29.81 in1009.5 mb 0.00 in0.0 mm 0.00 in0.0 mm 0.02 in0.5 mm
04:40 AM 69.3°F20.7°C 67.5°F19.7°C 94% 14.0 mph WSW22.5 kmh WSW 20.0 mph32.2 kmh 29.81 in1009.5 mb 0.00 in0.0 mm 0.00 in0.0 mm 0.02 in0.5 mm
04:45 AM 69.3°F20.7°C 67.2°F19.6°C 93% 8.0 mph SW12.9 kmh SW 21.0 mph33.8 kmh 29.81 in1009.5 mb 0.00 in0.0 mm 0.00 in0.0 mm 0.02 in0.5 mm
04:50 AM 69.4°F20.8°C 67.0°F19.4°C 92% 17.0 mph WSW27.4 kmh WSW 22.0 mph35.4 kmh 29.81 in1009.5 mb 0.00 in0.0 mm 0.00 in0.0 mm 0.02 in0.5 mm
04:55 AM 69.5°F20.8°C 66.8°F19.3°C 91% 19.0 mph SW30.6 kmh SW 22.0 mph35.4 kmh 29.81 in1009.5 mb 0.00 in0.0 mm 0.00 in0.0 mm 0.02 in0.5 mm
05:00 AM 69.5°F20.8°C 66.4°F19.1°C 90% 12.0 mph WSW19.3 kmh WSW 18.0 mph29.0 kmh 29.82 in1009.8 mb 0.00 in0.0 mm 0.00 in0.0 mm 0.02 in0.5 mm
05:05 AM 69.4°F20.8°C 66.3°F19.1°C 90% 11.0 mph SW17.7 kmh SW 21.0 mph33.8 kmh 29.82 in1009.8 mb 0.00 in0.0 mm 0.00 in0.0 mm 0.02 in0.5 mm
05:10 AM 69.2°F20.7°C 66.2°F19.0°C 90% 13.0 mph SSW20.9 kmh SSW 21.0 mph33.8 kmh 29.83 in1010.2 mb 0.00 in0.0 mm 0.00 in0.0 mm 0.02 in0.5 mm
05:15 AM 68.8°F20.4°C 65.8°F18.8°C 90% 7.0 mph SW11.3 kmh SW 19.0 mph30.6 kmh 29.83 in1010.2 mb 0.01 in0.3 mm 0.12 in3.0 mm 0.03 in0.8 mm
05:20 AM 68.6°F20.3°C 65.9°F18.8°C 91% 10.0 mph SW16.1 kmh SW 19.0 mph30.6 kmh 29.83 in1010.2 mb 0.01 in0.3 mm 0.00 in0.0 mm 0.03 in0.8 mm
05:25 AM 68.4°F20.2°C 65.7°F18.7°C 91% 10.0 mph WSW16.1 kmh WSW 19.0 mph30.6 kmh 29.83 in1010.2 mb 0.01 in0.3 mm 0.00 in0.0 mm 0.03 in0.8 mm
05:30 AM 68.3°F20.2°C 65.6°F18.7°C 91% 12.0 mph SW19.3 kmh SW 19.0 mph30.6 kmh 29.84 in1010.5 mb 0.01 in0.3 mm 0.00 in0.0 mm 0.03 in0.8 mm
05:35 AM 68.0°F20.0°C 65.0°F18.3°C 90% 15.0 mph SW24.1 kmh SW 23.0 mph37.0 kmh 29.84 in1010.5 mb 0.01 in0.3 mm 0.00 in0.0 mm 0.03 in0.8 mm
05:40 AM 67.5°F19.7°C 64.8°F18.2°C 91% 10.0 mph SW16.1 kmh SW 25.0 mph40.2 kmh 29.84 in1010.5 mb 0.01 in0.3 mm 0.00 in0.0 mm 0.03 in0.8 mm
05:45 AM 67.3°F19.6°C 64.9°F18.3°C 92% 7.0 mph SW11.3 kmh SW 15.0 mph24.1 kmh 29.85 in1010.8 mb 0.01 in0.3 mm 0.00 in0.0 mm 0.03 in0.8 mm
05:50 AM 67.1°F19.5°C 64.7°F18.2°C 92% 5.0 mph SW8.0 kmh SW 19.0 mph30.6 kmh 29.84 in1010.5 mb 0.01 in0.3 mm 0.00 in0.0 mm 0.03 in0.8 mm
05:55 AM 66.9°F19.4°C 64.5°F18.1°C 92% 10.0 mph WSW16.1 kmh WSW 19.0 mph30.6 kmh 29.85 in1010.8 mb 0.01 in0.3 mm 0.00 in0.0 mm 0.03 in0.8 mm
06:00 AM 67.0°F19.4°C 64.3°F17.9°C 91% 5.0 mph SW8.0 kmh SW 19.0 mph30.6 kmh 29.85 in1010.8 mb 0.01 in0.3 mm 0.00 in0.0 mm 0.03 in0.8 mm
06:05 AM 67.0°F19.4°C 64.3°F17.9°C 91% 11.0 mph SW17.7 kmh SW 19.0 mph30.6 kmh 29.86 in1011.2 mb 0.01 in0.3 mm 0.00 in0.0 mm 0.03 in0.8 mm
06:10 AM 67.1°F19.5°C 64.1°F17.8°C 90% 10.0 mph SW16.1 kmh SW 21.0 mph33.8 kmh 29.86 in1011.2 mb 0.01 in0.3 mm 0.00 in0.0 mm 0.03 in0.8 mm
06:15 AM 67.2°F19.6°C 63.9°F17.7°C 89% 9.0 mph WSW14.5 kmh WSW 17.0 mph27.4 kmh 29.86 in1011.2 mb 0.00 in0.0 mm 0.00 in0.0 mm 0.03 in0.8 mm
06:20 AM 67.3°F19.6°C 64.0°F17.8°C 89% 13.0 mph WSW20.9 kmh WSW 19.0 mph30.6 kmh 29.86 in1011.2 mb 0.00 in0.0 mm 0.00 in0.0 mm 0.03 in0.8 mm
06:25 AM 67.3°F19.6°C 64.0°F17.8°C 89% 16.0 mph WSW25.7 kmh WSW 20.0 mph32.2 kmh 29.87 in1011.5 mb 0.00 in0.0 mm 0.00 in0.0 mm 0.03 in0.8 mm
06:30 AM 67.3°F19.6°C 63.6°F17.6°C 88% 11.0 mph WSW17.7 kmh WSW 17.0 mph27.4 kmh 29.86 in1011.2 mb 0.00 in0.0 mm 0.00 in0.0 mm 0.03 in0.8 mm
06:35 AM 67.2°F19.6°C 62.9°F17.2°C 86% 16.0 mph WSW25.7 kmh WSW 22.0 mph35.4 kmh 29.87 in1011.5 mb 0.00 in0.0 mm 0.00 in0.0 mm 0.03 in0.8 mm
06:40 AM 67.2°F19.6°C 61.9°F16.6°C 83% 16.0 mph WSW25.7 kmh WSW 31.0 mph49.9 kmh 29.88 in1011.9 mb 0.00 in0.0 mm 0.00 in0.0 mm 0.03 in0.8 mm
06:45 AM 67.1°F19.5°C 61.8°F16.6°C 83% 19.0 mph WSW30.6 kmh WSW 25.0 mph40.2 kmh 29.88 in1011.9 mb 0.00 in0.0 mm 0.00 in0.0 mm 0.03 in0.8 mm
06:50 AM 67.0°F19.4°C 61.3°F16.3°C 82% 8.0 mph WSW12.9 kmh WSW 25.0 mph40.2 kmh 29.89 in1012.2 mb 0.00 in0.0 mm 0.00 in0.0 mm 0.03 in0.8 mm
06:55 AM 66.8°F19.3°C 61.5°F16.4°C 83% 6.0 mph SW9.7 kmh SW 25.0 mph40.2 kmh 29.89 in1012.2 mb 0.00 in0.0 mm 0.00 in0.0 mm 0.03 in0.8 mm
07:00 AM 66.7°F19.3°C 61.4°F16.3°C 83% 11.0 mph SW17.7 kmh SW 20.0 mph32.2 kmh 29.89 in1012.2 mb 0.00 in0.0 mm 0.00 in0.0 mm 0.03 in0.8 mm
07:05 AM 66.8°F19.3°C 61.5°F16.4°C 83% 21.0 mph SW33.8 kmh SW 25.0 mph40.2 kmh 29.89 in1012.2 mb 0.01 in0.3 mm 0.12 in3.0 mm 0.04 in1.0 mm
07:10 AM 66.9°F19.4°C 60.5°F15.8°C 80% 14.0 mph WSW22.5 kmh WSW 25.0 mph40.2 kmh 29.89 in1012.2 mb 0.01 in0.3 mm 0.00 in0.0 mm 0.04 in1.0 mm
07:15 AM 67.0°F19.4°C 60.6°F15.9°C 80% 15.0 mph SW24.1 kmh SW 23.0 mph37.0 kmh 29.90 in1012.5 mb 0.01 in0.3 mm 0.00 in0.0 mm 0.04 in1.0 mm
07:20 AM 67.0°F19.4°C 60.3°F15.7°C 79% 20.0 mph WSW32.2 kmh WSW 23.0 mph37.0 kmh 29.89 in1012.2 mb 0.01 in0.3 mm 0.00 in0.0 mm 0.04 in1.0 mm
07:25 AM 67.0°F19.4°C 60.3°F15.7°C 79% 9.0 mph WSW14.5 kmh WSW 25.0 mph40.2 kmh 29.90 in1012.5 mb 0.01 in0.3 mm 0.00 in0.0 mm 0.04 in1.0 mm
07:30 AM 67.0°F19.4°C 60.3°F15.7°C 79% 8.0 mph SW12.9 kmh SW 22.0 mph35.4 kmh 29.90 in1012.5 mb 0.01 in0.3 mm 0.00 in0.0 mm 0.04 in1.0 mm
07:35 AM 66.9°F19.4°C 60.2°F15.7°C 79% 17.0 mph SW27.4 kmh SW 22.0 mph35.4 kmh 29.90 in1012.5 mb 0.01 in0.3 mm 0.00 in0.0 mm 0.04 in1.0 mm
07:40 AM 66.9°F19.4°C 59.8°F15.4°C 78% 11.0 mph WSW17.7 kmh WSW 25.0 mph40.2 kmh 29.90 in1012.5 mb 0.01 in0.3 mm 0.00 in0.0 mm 0.04 in1.0 mm
07:45 AM 66.8°F19.3°C 60.1°F15.6°C 79% 10.0 mph WSW16.1 kmh WSW 17.0 mph27.4 kmh 29.90 in1012.5 mb 0.01 in0.3 mm 0.00 in0.0 mm 0.04 in1.0 mm
07:50 AM 66.8°F19.3°C 59.7°F15.4°C 78% 21.0 mph WSW33.8 kmh WSW 24.0 mph38.6 kmh 29.91 in1012.9 mb 0.01 in0.3 mm 0.00 in0.0 mm 0.04 in1.0 mm
07:55 AM 66.7°F19.3°C 59.6°F15.3°C 78% 3.0 mph WSW4.8 kmh WSW 24.0 mph38.6 kmh 29.91 in1012.9 mb 0.01 in0.3 mm 0.00 in0.0 mm 0.04 in1.0 mm
08:00 AM 66.7°F19.3°C 59.6°F15.3°C 78% 7.0 mph SW11.3 kmh SW 18.0 mph29.0 kmh 29.91 in1012.9 mb 0.01 in0.3 mm 0.00 in0.0 mm 0.04 in1.0 mm
08:05 AM 66.7°F19.3°C 59.6°F15.3°C 78% 12.0 mph WSW19.3 kmh WSW 18.0 mph29.0 kmh 29.91 in1012.9 mb 0.01 in0.3 mm 0.00 in0.0 mm 0.04 in1.0 mm
08:10 AM 66.8°F19.3°C 59.7°F15.4°C 78% 15.0 mph WSW24.1 kmh WSW 22.0 mph35.4 kmh 29.92 in1013.2 mb 0.01 in0.3 mm 0.00 in0.0 mm 0.04 in1.0 mm
08:15 AM 66.8°F19.3°C 59.4°F15.2°C 77% 12.0 mph WSW19.3 kmh WSW 18.0 mph29.0 kmh 29.92 in1013.2 mb 0.00 in0.0 mm 0.00 in0.0 mm 0.04 in1.0 mm
08:20 AM 67.1°F19.5°C 59.7°F15.4°C 77% 4.0 mph SW6.4 kmh SW 22.0 mph35.4 kmh 29.92 in1013.2 mb 0.00 in0.0 mm 0.00 in0.0 mm 0.04 in1.0 mm
08:25 AM 67.5°F19.7°C 59.7°F15.4°C 76% 15.0 mph WSW24.1 kmh WSW 23.0 mph37.0 kmh 29.92 in1013.2 mb 0.00 in0.0 mm 0.00 in0.0 mm 0.04 in1.0 mm
08:30 AM 67.1°F19.5°C 59.3°F15.2°C 76% 13.0 mph SW20.9 kmh SW 20.0 mph32.2 kmh 29.92 in1013.2 mb 0.00 in0.0 mm 0.00 in0.0 mm 0.04 in1.0 mm
08:35 AM 67.0°F19.4°C 59.2°F15.1°C 76% 8.0 mph SW12.9 kmh SW 20.0 mph32.2 kmh 29.92 in1013.2 mb 0.00 in0.0 mm 0.00 in0.0 mm 0.04 in1.0 mm
08:40 AM 67.0°F19.4°C 58.8°F14.9°C 75% 13.0 mph WSW20.9 kmh WSW 20.0 mph32.2 kmh 29.93 in1013.5 mb 0.00 in0.0 mm 0.00 in0.0 mm 0.04 in1.0 mm
08:45 AM 66.8°F19.3°C 58.6°F14.8°C 75% 12.0 mph WSW19.3 kmh WSW 19.0 mph30.6 kmh 29.93 in1013.5 mb 0.00 in0.0 mm 0.00 in0.0 mm 0.04 in1.0 mm
08:50 AM 66.9°F19.4°C 58.4°F14.7°C 74% 15.0 mph WSW24.1 kmh WSW 21.0 mph33.8 kmh 29.93 in1013.5 mb 0.00 in0.0 mm 0.00 in0.0 mm 0.04 in1.0 mm
08:55 AM 67.2°F19.6°C 58.6°F14.8°C 74% 10.0 mph WSW16.1 kmh WSW 21.0 mph33.8 kmh 29.93 in1013.5 mb 0.01 in0.3 mm 0.12 in3.0 mm 0.05 in1.3 mm
09:00 AM 67.6°F19.8°C 58.7°F14.8°C 73% 10.0 mph SW16.1 kmh SW 17.0 mph27.4 kmh 29.93 in1013.5 mb 0.01 in0.3 mm 0.00 in0.0 mm 0.05 in1.3 mm
09:05 AM 67.5°F19.7°C 58.2°F14.6°C 72% 13.0 mph SW20.9 kmh SW 23.0 mph37.0 kmh 29.94 in1013.9 mb 0.01 in0.3 mm 0.00 in0.0 mm 0.05 in1.3 mm
09:10 AM 67.1°F19.5°C 58.6°F14.8°C 74% 4.0 mph SW6.4 kmh SW 23.0 mph37.0 kmh 29.93 in1013.5 mb 0.01 in0.3 mm 0.00 in0.0 mm 0.05 in1.3 mm
09:15 AM 67.0°F19.4°C 58.1°F14.5°C 73% 13.0 mph WSW20.9 kmh WSW 21.0 mph33.8 kmh 29.93 in1013.5 mb 0.01 in0.3 mm 0.00 in0.0 mm 0.05 in1.3 mm
09:20 AM 67.3°F19.6°C 58.4°F14.7°C 73% 13.0 mph SW20.9 kmh SW 21.0 mph33.8 kmh 29.93 in1013.5 mb 0.01 in0.3 mm 0.00 in0.0 mm 0.05 in1.3 mm
09:25 AM 67.1°F19.5°C 58.2°F14.6°C 73% 12.0 mph WSW19.3 kmh WSW 21.0 mph33.8 kmh 29.94 in1013.9 mb 0.01 in0.3 mm 0.00 in0.0 mm 0.05 in1.3 mm
09:30 AM 66.7°F19.3°C 58.2°F14.6°C 74% 9.0 mph WSW14.5 kmh WSW 16.0 mph25.7 kmh 29.94 in1013.9 mb 0.01 in0.3 mm 0.00 in0.0 mm 0.05 in1.3 mm
09:35 AM 66.5°F19.2°C 57.6°F14.2°C 73% 10.0 mph SW16.1 kmh SW 24.0 mph38.6 kmh 29.94 in1013.9 mb 0.01 in0.3 mm 0.00 in0.0 mm 0.05 in1.3 mm
09:40 AM 66.7°F19.3°C 58.2°F14.6°C 74% 11.0 mph SSW17.7 kmh SSW 24.0 mph38.6 kmh 29.94 in1013.9 mb 0.01 in0.3 mm 0.00 in0.0 mm 0.05 in1.3 mm
09:45 AM 66.9°F19.4°C 57.2°F14.0°C 71% 11.0 mph SW17.7 kmh SW 20.0 mph32.2 kmh 29.94 in1013.9 mb 0.01 in0.3 mm 0.00 in0.0 mm 0.05 in1.3 mm
09:50 AM 66.7°F19.3°C 58.2°F14.6°C 74% 8.0 mph WSW12.9 kmh WSW 20.0 mph32.2 kmh 29.95 in1014.2 mb 0.01 in0.3 mm 0.00 in0.0 mm 0.05 in1.3 mm
09:55 AM 67.0°F19.4°C 58.1°F14.5°C 73% 7.0 mph SW11.3 kmh SW 20.0 mph32.2 kmh 29.95 in1014.2 mb 0.01 in0.3 mm 0.00 in0.0 mm 0.05 in1.3 mm
10:00 AM 67.2°F19.6°C 57.5°F14.2°C 71% 8.0 mph S12.9 kmh S 17.0 mph27.4 kmh 29.95 in1014.2 mb 0.00 in0.0 mm 0.00 in0.0 mm 0.05 in1.3 mm
10:05 AM 67.2°F19.6°C 57.5°F14.2°C 71% 9.0 mph WSW14.5 kmh WSW 18.0 mph29.0 kmh 29.95 in1014.2 mb 0.00 in0.0 mm 0.00 in0.0 mm 0.05 in1.3 mm
10:10 AM 67.5°F19.7°C 56.6°F13.7°C 68% 10.0 mph SW16.1 kmh SW 18.0 mph29.0 kmh 29.95 in1014.2 mb 0.00 in0.0 mm 0.00 in0.0 mm 0.05 in1.3 mm
10:15 AM 67.4°F19.7°C 57.3°F14.1°C 70% 11.0 mph SW17.7 kmh SW 13.0 mph20.9 kmh 29.94 in1013.9 mb 0.00 in0.0 mm 0.00 in0.0 mm 0.05 in1.3 mm
10:20 AM 67.7°F19.8°C 56.4°F13.6°C 67% 6.0 mph WSW9.7 kmh WSW 15.0 mph24.1 kmh 29.95 in1014.2 mb 0.00 in0.0 mm 0.00 in0.0 mm 0.05 in1.3 mm
10:25 AM 68.3°F20.2°C 57.3°F14.1°C 68% 6.0 mph SW9.7 kmh SW 18.0 mph29.0 kmh 29.94 in1013.9 mb 0.00 in0.0 mm 0.00 in0.0 mm 0.05 in1.3 mm
10:30 AM 69.4°F20.8°C 58.0°F14.4°C 67% 8.0 mph WSW12.9 kmh WSW 13.0 mph20.9 kmh 29.94 in1013.9 mb 0.00 in0.0 mm 0.00 in0.0 mm 0.05 in1.3 mm
10:35 AM 69.4°F20.8°C 56.7°F13.7°C 64% 12.0 mph WSW19.3 kmh WSW 18.0 mph29.0 kmh 29.95 in1014.2 mb 0.00 in0.0 mm 0.00 in0.0 mm 0.05 in1.3 mm
10:40 AM 69.2°F20.7°C 56.5°F13.6°C 64% 9.0 mph SW14.5 kmh SW 18.0 mph29.0 kmh 29.95 in1014.2 mb 0.00 in0.0 mm 0.00 in0.0 mm 0.05 in1.3 mm
10:45 AM 69.5°F20.8°C 56.8°F13.8°C 64% 12.0 mph WSW19.3 kmh WSW 18.0 mph29.0 kmh 29.95 in1014.2 mb 0.00 in0.0 mm 0.00 in0.0 mm 0.05 in1.3 mm
10:50 AM 70.1°F21.2°C 57.4°F14.1°C 64% 3.0 mph SW4.8 kmh SW 20.0 mph32.2 kmh 29.94 in1013.9 mb 0.00 in0.0 mm 0.00 in0.0 mm 0.05 in1.3 mm
10:55 AM 70.2°F21.2°C 56.6°F13.7°C 62% 8.0 mph SW12.9 kmh SW 20.0 mph32.2 kmh 29.95 in1014.2 mb 0.00 in0.0 mm 0.00 in0.0 mm 0.05 in1.3 mm
11:00 AM 70.1°F21.2°C 55.6°F13.1°C 60% 15.0 mph WSW24.1 kmh WSW 17.0 mph27.4 kmh 29.94 in1013.9 mb 0.00 in0.0 mm 0.00 in0.0 mm 0.05 in1.3 mm
11:05 AM 70.2°F21.2°C 56.1°F13.4°C 61% 5.0 mph WSW8.0 kmh WSW 18.0 mph29.0 kmh 29.94 in1013.9 mb 0.00 in0.0 mm 0.00 in0.0 mm 0.05 in1.3 mm
11:10 AM 70.3°F21.3°C 56.2°F13.4°C 61% 10.0 mph SW16.1 kmh SW 19.0 mph30.6 kmh 29.94 in1013.9 mb 0.01 in0.3 mm 0.12 in3.0 mm 0.06 in1.5 mm
11:15 AM 70.3°F21.3°C 55.8°F13.2°C 60% 11.0 mph SW17.7 kmh SW 17.0 mph27.4 kmh 29.94 in1013.9 mb 0.01 in0.3 mm 0.00 in0.0 mm 0.06 in1.5 mm
11:20 AM 70.9°F21.6°C 56.8°F13.8°C 61% 7.0 mph WSW11.3 kmh WSW 17.0 mph27.4 kmh 29.95 in1014.2 mb 0.01 in0.3 mm 0.00 in0.0 mm 0.06 in1.5 mm
11:25 AM 70.9°F21.6°C 55.4°F13.0°C 58% 14.0 mph SSW22.5 kmh SSW 17.0 mph27.4 kmh 29.95 in1014.2 mb 0.01 in0.3 mm 0.00 in0.0 mm 0.06 in1.5 mm
11:30 AM 70.8°F21.6°C 55.3°F12.9°C 58% 12.0 mph SW19.3 kmh SW 18.0 mph29.0 kmh 29.94 in1013.9 mb 0.01 in0.3 mm 0.00 in0.0 mm 0.06 in1.5 mm
11:35 AM 71.0°F21.7°C 55.0°F12.8°C 57% 18.0 mph WSW29.0 kmh WSW 21.0 mph33.8 kmh 29.94 in1013.9 mb 0.01 in0.3 mm 0.00 in0.0 mm 0.06 in1.5 mm
11:40 AM 71.3°F21.8°C 54.8°F12.7°C 56% 5.0 mph SW8.0 kmh SW 21.0 mph33.8 kmh 29.95 in1014.2 mb 0.01 in0.3 mm 0.00 in0.0 mm 0.06 in1.5 mm
11:45 AM 71.5°F21.9°C 55.0°F12.8°C 56% 8.0 mph SW12.9 kmh SW 16.0 mph25.7 kmh 29.95 in1014.2 mb 0.01 in0.3 mm 0.00 in0.0 mm 0.06 in1.5 mm
11:50 AM 71.9°F22.2°C 55.4°F13.0°C 56% 15.0 mph WSW24.1 kmh WSW 18.0 mph29.0 kmh 29.95 in1014.2 mb 0.01 in0.3 mm 0.00 in0.0 mm 0.06 in1.5 mm
11:55 AM 72.1°F22.3°C 55.1°F12.8°C 55% 5.0 mph SW8.0 kmh SW 18.0 mph29.0 kmh 29.95 in1014.2 mb 0.01 in0.3 mm 0.00 in0.0 mm 0.06 in1.5 mm
12:00 PM 72.3°F22.4°C 54.7°F12.6°C 54% 8.0 mph SSW12.9 kmh SSW 16.0 mph25.7 kmh 29.95 in1014.2 mb 0.01 in0.3 mm 0.00 in0.0 mm 0.06 in1.5 mm
12:05 PM 72.2°F22.3°C 53.6°F12.0°C 52% 3.0 mph SW4.8 kmh SW 16.0 mph25.7 kmh 29.95 in1014.2 mb 0.01 in0.3 mm 0.00 in0.0 mm 0.06 in1.5 mm
12:10 PM 73.0°F22.8°C 55.9°F13.3°C 55% 14.0 mph SW22.5 kmh SW 16.0 mph25.7 kmh 29.96 in1014.6 mb 0.01 in0.3 mm 0.00 in0.0 mm 0.06 in1.5 mm
12:15 PM 72.8°F22.7°C 55.2°F12.9°C 54% 15.0 mph WSW24.1 kmh WSW 17.0 mph27.4 kmh 29.96 in1014.6 mb 0.00 in0.0 mm 0.00 in0.0 mm 0.06 in1.5 mm
12:20 PM 72.8°F22.7°C 54.7°F12.6°C 53% 11.0 mph SW17.7 kmh SW 17.0 mph27.4 kmh 29.96 in1014.6 mb 0.00 in0.0 mm 0.00 in0.0 mm 0.06 in1.5 mm
12:25 PM 73.0°F22.8°C 55.9°F13.3°C 55% 8.0 mph WSW12.9 kmh WSW 17.0 mph27.4 kmh 29.95 in1014.2 mb 0.00 in0.0 mm 0.00 in0.0 mm 0.06 in1.5 mm
12:30 PM 73.5°F23.1°C 56.9°F13.8°C 56% 11.0 mph WSW17.7 kmh WSW 14.0 mph22.5 kmh 29.95 in1014.2 mb 0.00 in0.0 mm 0.00 in0.0 mm 0.06 in1.5 mm
12:35 PM 73.4°F23.0°C 55.8°F13.2°C 54% 6.0 mph WSW9.7 kmh WSW 14.0 mph22.5 kmh 29.95 in1014.2 mb 0.00 in0.0 mm 0.00 in0.0 mm 0.06 in1.5 mm
12:40 PM 73.3°F22.9°C 55.7°F13.2°C 54% 8.0 mph SW12.9 kmh SW 16.0 mph25.7 kmh 29.95 in1014.2 mb 0.00 in0.0 mm 0.00 in0.0 mm 0.06 in1.5 mm
12:45 PM 73.3°F22.9°C 54.1°F12.3°C 51% 11.0 mph SW17.7 kmh SW 17.0 mph27.4 kmh 29.96 in1014.6 mb 0.00 in0.0 mm 0.00 in0.0 mm 0.06 in1.5 mm
12:50 PM 73.6°F23.1°C 55.4°F13.0°C 53% 11.0 mph SW17.7 kmh SW 17.0 mph27.4 kmh 29.96 in1014.6 mb 0.00 in0.0 mm 0.00 in0.0 mm 0.06 in1.5 mm
12:55 PM 73.7°F23.2°C 54.5°F12.5°C 51% 6.0 mph SW9.7 kmh SW 17.0 mph27.4 kmh 29.96 in1014.6 mb 0.00 in0.0 mm 0.00 in0.0 mm 0.06 in1.5 mm
01:00 PM 73.7°F23.2°C 55.0°F12.8°C 52% 7.0 mph SW11.3 kmh SW 14.0 mph22.5 kmh 29.96 in1014.6 mb 0.00 in0.0 mm 0.00 in0.0 mm 0.06 in1.5 mm
01:05 PM 73.9°F23.3°C 54.7°F12.6°C 51% 8.0 mph SW12.9 kmh SW 17.0 mph27.4 kmh 29.96 in1014.6 mb 0.00 in0.0 mm 0.00 in0.0 mm 0.06 in1.5 mm
01:10 PM 74.3°F23.5°C 54.5°F12.5°C 50% 5.0 mph SSW8.0 kmh SSW 17.0 mph27.4 kmh 29.95 in1014.2 mb 0.00 in0.0 mm 0.00 in0.0 mm 0.06 in1.5 mm
01:15 PM 74.4°F23.6°C 55.1°F12.8°C 51% 10.0 mph SW16.1 kmh SW 16.0 mph25.7 kmh 29.96 in1014.6 mb 0.00 in0.0 mm 0.00 in0.0 mm 0.06 in1.5 mm
01:20 PM 74.5°F23.6°C 56.8°F13.8°C 54% 10.0 mph SW16.1 kmh SW 16.0 mph25.7 kmh 29.95 in1014.2 mb 0.00 in0.0 mm 0.00 in0.0 mm 0.06 in1.5 mm
01:25 PM 74.6°F23.7°C 55.8°F13.2°C 52% 10.0 mph WSW16.1 kmh WSW 17.0 mph27.4 kmh 29.95 in1014.2 mb 0.01 in0.3 mm 0.12 in3.0 mm 0.07 in1.8 mm
01:30 PM 75.4°F24.1°C 58.6°F14.8°C 56% 7.0 mph SW11.3 kmh SW 10.0 mph16.1 kmh 29.95 in1014.2 mb 0.01 in0.3 mm 0.00 in0.0 mm 0.07 in1.8 mm
01:35 PM 75.2°F24.0°C 55.3°F12.9°C 50% 13.0 mph SW20.9 kmh SW 15.0 mph24.1 kmh 29.95 in1014.2 mb 0.01 in0.3 mm 0.00 in0.0 mm 0.07 in1.8 mm
01:40 PM 75.4°F24.1°C 56.0°F13.3°C 51% 11.0 mph WSW17.7 kmh WSW 16.0 mph25.7 kmh 29.96 in1014.6 mb 0.01 in0.3 mm 0.00 in0.0 mm 0.07 in1.8 mm
01:45 PM 75.1°F23.9°C 54.1°F12.3°C 48% 5.0 mph WSW8.0 kmh WSW 17.0 mph27.4 kmh 29.96 in1014.6 mb 0.01 in0.3 mm 0.00 in0.0 mm 0.07 in1.8 mm
01:50 PM 75.4°F24.1°C 55.5°F13.1°C 50% 6.0 mph SW9.7 kmh SW 18.0 mph29.0 kmh 29.95 in1014.2 mb 0.01 in0.3 mm 0.00 in0.0 mm 0.07 in1.8 mm
01:55 PM 75.5°F24.2°C 56.1°F13.4°C 51% 5.0 mph SW8.0 kmh SW 18.0 mph29.0 kmh 29.95 in1014.2 mb 0.01 in0.3 mm 0.00 in0.0 mm 0.07 in1.8 mm
02:00 PM 75.5°F24.2°C 55.6°F13.1°C 50% 11.0 mph WSW17.7 kmh WSW 16.0 mph25.7 kmh 29.95 in1014.2 mb 0.01 in0.3 mm 0.00 in0.0 mm 0.07 in1.8 mm
02:05 PM 75.7°F24.3°C 56.3°F13.5°C 51% 6.0 mph WSW9.7 kmh WSW 16.0 mph25.7 kmh 29.95 in1014.2 mb 0.01 in0.3 mm 0.00 in0.0 mm 0.07 in1.8 mm
02:10 PM 75.9°F24.4°C 54.8°F12.7°C 48% 8.0 mph SW12.9 kmh SW 17.0 mph27.4 kmh 29.95 in1014.2 mb 0.01 in0.3 mm 0.00 in0.0 mm 0.07 in1.8 mm
02:15 PM 76.1°F24.5°C 54.4°F12.4°C 47% 10.0 mph SW16.1 kmh SW 15.0 mph24.1 kmh 29.95 in1014.2 mb 0.01 in0.3 mm 0.00 in0.0 mm 0.07 in1.8 mm
02:20 PM 76.6°F24.8°C 56.0°F13.3°C 49% 3.0 mph WSW4.8 kmh WSW 15.0 mph24.1 kmh 29.95 in1014.2 mb 0.01 in0.3 mm 0.00 in0.0 mm 0.07 in1.8 mm
02:25 PM 76.7°F24.8°C 55.0°F12.8°C 47% 11.0 mph SW17.7 kmh SW 17.0 mph27.4 kmh 29.95 in1014.2 mb 0.01 in0.3 mm 0.00 in0.0 mm 0.07 in1.8 mm
02:30 PM 76.3°F24.6°C 55.2°F12.9°C 48% 11.0 mph SSW17.7 kmh SSW 16.0 mph25.7 kmh 29.95 in1014.2 mb 0.00 in0.0 mm 0.00 in0.0 mm 0.07 in1.8 mm
02:35 PM 76.4°F24.7°C 55.9°F13.3°C 49% 8.0 mph SW12.9 kmh SW 16.0 mph25.7 kmh 29.95 in1014.2 mb 0.00 in0.0 mm 0.00 in0.0 mm 0.07 in1.8 mm
02:40 PM 76.8°F24.9°C 57.3°F14.1°C 51% 9.0 mph SW14.5 kmh SW 16.0 mph25.7 kmh 29.95 in1014.2 mb 0.00 in0.0 mm 0.00 in0.0 mm 0.07 in1.8 mm
02:45 PM 77.3°F25.2°C 57.8°F14.3°C 51% 8.0 mph WSW12.9 kmh WSW 14.0 mph22.5 kmh 29.95 in1014.2 mb 0.00 in0.0 mm 0.00 in0.0 mm 0.07 in1.8 mm
02:50 PM 77.1°F25.1°C 56.5°F13.6°C 49% 13.0 mph WSW20.9 kmh WSW 17.0 mph27.4 kmh 29.95 in1014.2 mb 0.00 in0.0 mm 0.00 in0.0 mm 0.07 in1.8 mm
02:55 PM 77.4°F25.2°C 56.8°F13.8°C 49% 7.0 mph SW11.3 kmh SW 17.0 mph27.4 kmh 29.95 in1014.2 mb 0.00 in0.0 mm 0.00 in0.0 mm 0.07 in1.8 mm
03:00 PM 78.2°F25.7°C 59.2°F15.1°C 52% 8.0 mph WSW12.9 kmh WSW 12.0 mph19.3 kmh 29.95 in1014.2 mb 0.00 in0.0 mm 0.00 in0.0 mm 0.07 in1.8 mm
03:05 PM 78.2°F25.7°C 57.5°F14.2°C 49% 10.0 mph SW16.1 kmh SW 15.0 mph24.1 kmh 29.95 in1014.2 mb 0.00 in0.0 mm 0.00 in0.0 mm 0.07 in1.8 mm
03:10 PM 78.0°F25.6°C 56.2°F13.4°C 47% 7.0 mph WSW11.3 kmh WSW 15.0 mph24.1 kmh 29.95 in1014.2 mb 0.00 in0.0 mm 0.00 in0.0 mm 0.07 in1.8 mm
03:15 PM 78.3°F25.7°C 57.0°F13.9°C 48% 11.0 mph SW17.7 kmh SW 15.0 mph24.1 kmh 29.95 in1014.2 mb 0.00 in0.0 mm 0.00 in0.0 mm 0.07 in1.8 mm
03:20 PM 78.4°F25.8°C 56.5°F13.6°C 47% 9.0 mph WSW14.5 kmh WSW 17.0 mph27.4 kmh 29.94 in1013.9 mb 0.00 in0.0 mm 0.00 in0.0 mm 0.07 in1.8 mm
03:25 PM 78.3°F25.7°C 58.2°F14.6°C 50% 7.0 mph SW11.3 kmh SW 17.0 mph27.4 kmh 29.95 in1014.2 mb 0.00 in0.0 mm 0.00 in0.0 mm 0.07 in1.8 mm
03:30 PM 78.7°F25.9°C 56.2°F13.4°C 46% 9.0 mph WSW14.5 kmh WSW 17.0 mph27.4 kmh 29.94 in1013.9 mb 0.00 in0.0 mm 0.00 in0.0 mm 0.07 in1.8 mm
03:35 PM 78.7°F25.9°C 53.7°F12.1°C 42% 15.0 mph SW24.1 kmh SW 17.0 mph27.4 kmh 29.94 in1013.9 mb 0.00 in0.0 mm 0.00 in0.0 mm 0.07 in1.8 mm
03:40 PM 78.5°F25.8°C 54.2°F12.3°C 43% 9.0 mph WSW14.5 kmh WSW 17.0 mph27.4 kmh 29.95 in1014.2 mb 0.00 in0.0 mm 0.00 in0.0 mm 0.07 in1.8 mm
03:45 PM 78.6°F25.9°C 54.3°F12.4°C 43% 9.0 mph SW14.5 kmh SW 17.0 mph27.4 kmh 29.94 in1013.9 mb 0.00 in0.0 mm 0.00 in0.0 mm 0.07 in1.8 mm
03:50 PM 78.7°F25.9°C 55.6°F13.1°C 45% 9.0 mph SW14.5 kmh SW 17.0 mph27.4 kmh 29.94 in1013.9 mb 0.00 in0.0 mm 0.00 in0.0 mm 0.07 in1.8 mm
03:55 PM 78.8°F26.0°C 53.8°F12.1°C 42% 13.0 mph SW20.9 kmh SW 18.0 mph29.0 kmh 29.95 in1014.2 mb 0.00 in0.0 mm 0.00 in0.0 mm 0.07 in1.8 mm
04:00 PM 79.0°F26.1°C 56.5°F13.6°C 46% 10.0 mph WSW16.1 kmh WSW 13.0 mph20.9 kmh 29.94 in1013.9 mb 0.00 in0.0 mm 0.00 in0.0 mm 0.07 in1.8 mm
04:05 PM 78.9°F26.1°C 53.2°F11.8°C 41% 7.0 mph WSW11.3 kmh WSW 21.0 mph33.8 kmh 29.95 in1014.2 mb 0.00 in0.0 mm 0.00 in0.0 mm 0.07 in1.8 mm
04:10 PM 79.0°F26.1°C 52.6°F11.4°C 40% 15.0 mph SW24.1 kmh SW 21.0 mph33.8 kmh 29.95 in1014.2 mb 0.00 in0.0 mm 0.00 in0.0 mm 0.07 in1.8 mm
04:15 PM 79.0°F26.1°C 54.0°F12.2°C 42% 16.0 mph SW25.7 kmh SW 16.0 mph25.7 kmh 29.95 in1014.2 mb 0.00 in0.0 mm 0.00 in0.0 mm 0.07 in1.8 mm
04:20 PM 79.1°F26.2°C 52.7°F11.5°C 40% 5.0 mph WSW8.0 kmh WSW 23.0 mph37.0 kmh 29.95 in1014.2 mb 0.00 in0.0 mm 0.00 in0.0 mm 0.07 in1.8 mm
04:25 PM 79.0°F26.1°C 53.3°F11.8°C 41% 11.0 mph WSW17.7 kmh WSW 23.0 mph37.0 kmh 29.95 in1014.2 mb 0.00 in0.0 mm 0.00 in0.0 mm 0.07 in1.8 mm
04:30 PM 79.0°F26.1°C 54.0°F12.2°C 42% 11.0 mph SW17.7 kmh SW 17.0 mph27.4 kmh 29.95 in1014.2 mb 0.00 in0.0 mm 0.00 in0.0 mm 0.07 in1.8 mm
04:35 PM 79.0°F26.1°C 55.9°F13.3°C 45% 10.0 mph WSW16.1 kmh WSW 17.0 mph27.4 kmh 29.95 in1014.2 mb 0.00 in0.0 mm 0.00 in0.0 mm 0.07 in1.8 mm
04:40 PM 79.1°F26.2°C 54.1°F12.3°C 42% 12.0 mph SW19.3 kmh SW 17.0 mph27.4 kmh 29.95 in1014.2 mb 0.00 in0.0 mm 0.00 in0.0 mm 0.07 in1.8 mm
04:45 PM 78.7°F25.9°C 51.7°F10.9°C 39% 14.0 mph WSW22.5 kmh WSW 22.0 mph35.4 kmh 29.95 in1014.2 mb 0.00 in0.0 mm 0.00 in0.0 mm 0.07 in1.8 mm
04:50 PM 78.8°F26.0°C 52.5°F11.4°C 40% 9.0 mph SW14.5 kmh SW 22.0 mph35.4 kmh 29.96 in1014.6 mb 0.00 in0.0 mm 0.00 in0.0 mm 0.07 in1.8 mm
04:55 PM 79.3°F26.3°C 53.6°F12.0°C 41% 5.0 mph SW8.0 kmh SW 22.0 mph35.4 kmh 29.95 in1014.2 mb 0.00 in0.0 mm 0.00 in0.0 mm 0.07 in1.8 mm
05:00 PM 79.2°F26.2°C 51.4°F10.8°C 38% 13.0 mph WSW20.9 kmh WSW 17.0 mph27.4 kmh 29.95 in1014.2 mb 0.00 in0.0 mm 0.00 in0.0 mm 0.07 in1.8 mm
05:05 PM 79.1°F26.2°C 52.0°F11.1°C 39% 12.0 mph SW19.3 kmh SW 20.0 mph32.2 kmh 29.95 in1014.2 mb 0.00 in0.0 mm 0.00 in0.0 mm 0.07 in1.8 mm
05:10 PM 79.0°F26.1°C 53.3°F11.8°C 41% 10.0 mph SW16.1 kmh SW 20.0 mph32.2 kmh 29.95 in1014.2 mb 0.00 in0.0 mm 0.00 in0.0 mm 0.07 in1.8 mm
05:15 PM 78.9°F26.1°C 52.6°F11.4°C 40% 13.0 mph WSW20.9 kmh WSW 20.0 mph32.2 kmh 29.95 in1014.2 mb 0.00 in0.0 mm 0.00 in0.0 mm 0.07 in1.8 mm
05:20 PM 78.9°F26.1°C 51.9°F11.1°C 39% 5.0 mph WSW8.0 kmh WSW 20.0 mph32.2 kmh 29.95 in1014.2 mb 0.00 in0.0 mm 0.00 in0.0 mm 0.07 in1.8 mm
05:25 PM 79.1°F26.2°C 52.7°F11.5°C 40% 9.0 mph WSW14.5 kmh WSW 20.0 mph32.2 kmh 29.95 in1014.2 mb 0.00 in0.0 mm 0.00 in0.0 mm 0.07 in1.8 mm
05:30 PM 78.7°F25.9°C 52.4°F11.3°C 40% 18.0 mph SW29.0 kmh SW 18.0 mph29.0 kmh 29.95 in1014.2 mb 0.00 in0.0 mm 0.00 in0.0 mm 0.07 in1.8 mm
05:35 PM 78.5°F25.8°C 52.9°F11.6°C 41% 14.0 mph SW22.5 kmh SW 18.0 mph29.0 kmh 29.95 in1014.2 mb 0.00 in0.0 mm 0.00 in0.0 mm 0.07 in1.8 mm
05:40 PM 78.3°F25.7°C 52.7°F11.5°C 41% 9.0 mph SSW14.5 kmh SSW 26.0 mph41.8 kmh 29.95 in1014.2 mb 0.00 in0.0 mm 0.00 in0.0 mm 0.07 in1.8 mm
05:45 PM 78.3°F25.7°C 54.0°F12.2°C 43% 11.0 mph WSW17.7 kmh WSW 15.0 mph24.1 kmh 29.95 in1014.2 mb 0.01 in0.3 mm 0.12 in3.0 mm 0.08 in2.0 mm
05:50 PM 78.5°F25.8°C 54.2°F12.3°C 43% 13.0 mph WSW20.9 kmh WSW 17.0 mph27.4 kmh 29.95 in1014.2 mb 0.01 in0.3 mm 0.00 in0.0 mm 0.08 in2.0 mm
05:55 PM 78.4°F25.8°C 52.1°F11.2°C 40% 11.0 mph SW17.7 kmh SW 20.0 mph32.2 kmh 29.95 in1014.2 mb 0.01 in0.3 mm 0.00 in0.0 mm 0.08 in2.0 mm
06:00 PM 78.4°F25.8°C 52.8°F11.6°C 41% 11.0 mph SW17.7 kmh SW 15.0 mph24.1 kmh 29.95 in1014.2 mb 0.01 in0.3 mm 0.00 in0.0 mm 0.08 in2.0 mm
06:05 PM 78.2°F25.7°C 54.5°F12.5°C 44% 10.0 mph WSW16.1 kmh WSW 15.0 mph24.1 kmh 29.95 in1014.2 mb 0.01 in0.3 mm 0.00 in0.0 mm 0.08 in2.0 mm
06:10 PM 77.9°F25.5°C 51.7°F10.9°C 40% 7.0 mph WSW11.3 kmh WSW 19.0 mph30.6 kmh 29.95 in1014.2 mb 0.01 in0.3 mm 0.00 in0.0 mm 0.08 in2.0 mm
06:15 PM 77.6°F25.3°C 52.1°F11.2°C 41% 9.0 mph SW14.5 kmh SW 14.0 mph22.5 kmh 29.95 in1014.2 mb 0.01 in0.3 mm 0.00 in0.0 mm 0.08 in2.0 mm
06:20 PM 77.7°F25.4°C 52.2°F11.2°C 41% 12.0 mph WSW19.3 kmh WSW 23.0 mph37.0 kmh 29.96 in1014.6 mb 0.01 in0.3 mm 0.00 in0.0 mm 0.08 in2.0 mm
06:25 PM 77.9°F25.5°C 52.3°F11.3°C 41% 10.0 mph SSW16.1 kmh SSW 23.0 mph37.0 kmh 29.96 in1014.6 mb 0.01 in0.3 mm 0.00 in0.0 mm 0.08 in2.0 mm
06:30 PM 77.6°F25.3°C 51.4°F10.8°C 40% 3.0 mph WSW4.8 kmh WSW 15.0 mph24.1 kmh 29.95 in1014.2 mb 0.01 in0.3 mm 0.00 in0.0 mm 0.08 in2.0 mm
06:35 PM 77.3°F25.2°C 52.5°F11.4°C 42% 10.0 mph WSW16.1 kmh WSW 16.0 mph25.7 kmh 29.96 in1014.6 mb 0.01 in0.3 mm 0.00 in0.0 mm 0.08 in2.0 mm
06:40 PM 77.2°F25.1°C 53.0°F11.7°C 43% 12.0 mph W19.3 kmh W 16.0 mph25.7 kmh 29.96 in1014.6 mb 0.01 in0.3 mm 0.00 in0.0 mm 0.08 in2.0 mm
06:45 PM 77.1°F25.1°C 52.3°F11.3°C 42% 7.0 mph WSW11.3 kmh WSW 11.0 mph17.7 kmh 29.96 in1014.6 mb 0.00 in0.0 mm 0.00 in0.0 mm 0.08 in2.0 mm
06:50 PM 77.1°F25.1°C 53.5°F11.9°C 44% 7.0 mph W11.3 kmh W 11.0 mph17.7 kmh 29.96 in1014.6 mb 0.00 in0.0 mm 0.00 in0.0 mm 0.08 in2.0 mm
06:55 PM 76.6°F24.8°C 55.5°F13.1°C 48% 6.0 mph W9.7 kmh W 11.0 mph17.7 kmh 29.96 in1014.6 mb 0.00 in0.0 mm 0.00 in0.0 mm 0.08 in2.0 mm
07:00 PM 75.9°F24.4°C 56.5°F13.6°C 51% 3.0 mph WNW4.8 kmh WNW 5.0 mph8.0 kmh 29.96 in1014.6 mb 0.00 in0.0 mm 0.00 in0.0 mm 0.08 in2.0 mm
07:05 PM 75.6°F24.2°C 56.8°F13.8°C 52% 3.0 mph WNW4.8 kmh WNW 9.0 mph14.5 kmh 29.96 in1014.6 mb 0.00 in0.0 mm 0.00 in0.0 mm 0.08 in2.0 mm
07:10 PM 75.3°F24.1°C 57.5°F14.2°C 54% 5.0 mph WNW8.0 kmh WNW 9.0 mph14.5 kmh 29.96 in1014.6 mb 0.00 in0.0 mm 0.00 in0.0 mm 0.08 in2.0 mm
07:15 PM 75.2°F24.0°C 57.4°F14.1°C 54% 2.0 mph WNW3.2 kmh WNW 5.0 mph8.0 kmh 29.97 in1014.9 mb 0.00 in0.0 mm 0.00 in0.0 mm 0.08 in2.0 mm
07:20 PM 74.9°F23.8°C 57.7°F14.3°C 55% 3.0 mph WNW4.8 kmh WNW 5.0 mph8.0 kmh 29.96 in1014.6 mb 0.00 in0.0 mm 0.00 in0.0 mm 0.08 in2.0 mm
07:25 PM 74.5°F23.6°C 58.3°F14.6°C 57% 2.0 mph WNW3.2 kmh WNW 5.0 mph8.0 kmh 29.97 in1014.9 mb 0.00 in0.0 mm 0.00 in0.0 mm 0.08 in2.0 mm
07:30 PM 74.2°F23.4°C 58.0°F14.4°C 57% 2.0 mph WNW3.2 kmh WNW 4.0 mph6.4 kmh 29.97 in1014.9 mb 0.00 in0.0 mm 0.00 in0.0 mm 0.08 in2.0 mm
07:35 PM 74.2°F23.4°C 58.5°F14.7°C 58% 2.0 mph WNW3.2 kmh WNW 4.0 mph6.4 kmh 29.97 in1014.9 mb 0.00 in0.0 mm 0.00 in0.0 mm 0.08 in2.0 mm
07:40 PM 74.2°F23.4°C 59.4°F15.2°C 60% 2.0 mph WNW3.2 kmh WNW 4.0 mph6.4 kmh 29.97 in1014.9 mb 0.00 in0.0 mm 0.00 in0.0 mm 0.08 in2.0 mm
07:45 PM 74.0°F23.3°C 59.3°F15.2°C 60% 4.0 mph WNW6.4 kmh WNW 5.0 mph8.0 kmh 29.97 in1014.9 mb 0.00 in0.0 mm 0.00 in0.0 mm 0.08 in2.0 mm
07:50 PM 73.8°F23.2°C 59.1°F15.1°C 60% 3.0 mph WNW4.8 kmh WNW 5.0 mph8.0 kmh 29.97 in1014.9 mb 0.00 in0.0 mm 0.00 in0.0 mm 0.08 in2.0 mm
07:55 PM 73.8°F23.2°C 59.5°F15.3°C 61% 3.0 mph WNW4.8 kmh WNW 5.0 mph8.0 kmh 29.98 in1015.2 mb 0.00 in0.0 mm 0.00 in0.0 mm 0.08 in2.0 mm
08:00 PM 73.7°F23.2°C 58.5°F14.7°C 59% 5.0 mph WNW8.0 kmh WNW 7.0 mph11.3 kmh 29.98 in1015.2 mb 0.00 in0.0 mm 0.00 in0.0 mm 0.08 in2.0 mm
08:05 PM 73.7°F23.2°C 57.1°F13.9°C 56% 2.0 mph WNW3.2 kmh WNW 7.0 mph11.3 kmh 29.98 in1015.2 mb 0.00 in0.0 mm 0.00 in0.0 mm 0.08 in2.0 mm
08:10 PM 73.7°F23.2°C 57.5°F14.2°C 57% 4.0 mph WNW6.4 kmh WNW 7.0 mph11.3 kmh 29.98 in1015.2 mb 0.00 in0.0 mm 0.00 in0.0 mm 0.08 in2.0 mm
08:15 PM 73.7°F23.2°C 57.5°F14.2°C 57% 3.0 mph WNW4.8 kmh WNW 3.0 mph4.8 kmh 29.99 in1015.6 mb 0.00 in0.0 mm 0.00 in0.0 mm 0.08 in2.0 mm
08:20 PM 73.5°F23.1°C 58.3°F14.6°C 59% 2.0 mph WNW3.2 kmh WNW 5.0 mph8.0 kmh 29.99 in1015.6 mb 0.00 in0.0 mm 0.00 in0.0 mm 0.08 in2.0 mm
08:25 PM 73.4°F23.0°C 58.7°F14.8°C 60% 3.0 mph WNW4.8 kmh WNW 5.0 mph8.0 kmh 29.99 in1015.6 mb 0.00 in0.0 mm 0.00 in0.0 mm 0.08 in2.0 mm
08:30 PM 73.1°F22.8°C 57.5°F14.2°C 58% 2.0 mph WNW3.2 kmh WNW 3.0 mph4.8 kmh 29.98 in1015.2 mb 0.00 in0.0 mm 0.00 in0.0 mm 0.08 in2.0 mm
08:35 PM 72.9°F22.7°C 58.7°F14.8°C 61% 2.0 mph WNW3.2 kmh WNW 3.0 mph4.8 kmh 29.98 in1015.2 mb 0.00 in0.0 mm 0.00 in0.0 mm 0.08 in2.0 mm
08:40 PM 72.6°F22.6°C 58.9°F14.9°C 62% 1.0 mph WNW1.6 kmh WNW 4.0 mph6.4 kmh 29.99 in1015.6 mb 0.00 in0.0 mm 0.00 in0.0 mm 0.08 in2.0 mm
08:45 PM 72.2°F22.3°C 57.1°F13.9°C 59% 3.0 mph WNW4.8 kmh WNW 4.0 mph6.4 kmh 29.99 in1015.6 mb 0.00 in0.0 mm 0.00 in0.0 mm 0.08 in2.0 mm
08:50 PM 71.9°F22.2°C 57.3°F14.1°C 60% 4.0 mph WNW6.4 kmh WNW 7.0 mph11.3 kmh 29.99 in1015.6 mb 0.00 in0.0 mm 0.00 in0.0 mm 0.08 in2.0 mm
08:55 PM 71.5°F21.9°C 58.3°F14.6°C 63% 8.0 mph W12.9 kmh W 8.0 mph12.9 kmh 29.99 in1015.6 mb 0.00 in0.0 mm 0.00 in0.0 mm 0.08 in2.0 mm
09:00 PM 71.3°F21.8°C 57.6°F14.2°C 62% 6.0 mph WSW9.7 kmh WSW 7.0 mph11.3 kmh 29.99 in1015.6 mb 0.00 in0.0 mm 0.00 in0.0 mm 0.08 in2.0 mm
09:05 PM 71.0°F21.7°C 57.8°F14.3°C 63% 3.0 mph WSW4.8 kmh WSW 8.0 mph12.9 kmh 29.99 in1015.6 mb 0.00 in0.0 mm 0.00 in0.0 mm 0.08 in2.0 mm
09:10 PM 70.9°F21.6°C 56.3°F13.5°C 60% 3.0 mph WSW4.8 kmh WSW 8.0 mph12.9 kmh 29.99 in1015.6 mb 0.00 in0.0 mm 0.00 in0.0 mm 0.08 in2.0 mm
09:15 PM 70.7°F21.5°C 55.7°F13.2°C 59% 2.0 mph WSW3.2 kmh WSW 4.0 mph6.4 kmh 29.99 in1015.6 mb 0.00 in0.0 mm 0.00 in0.0 mm 0.08 in2.0 mm
09:20 PM 70.7°F21.5°C 55.7°F13.2°C 59% 1.0 mph WSW1.6 kmh WSW 4.0 mph6.4 kmh 29.99 in1015.6 mb 0.00 in0.0 mm 0.00 in0.0 mm 0.08 in2.0 mm
09:25 PM 70.6°F21.4°C 55.6°F13.1°C 59% 2.0 mph WSW3.2 kmh WSW 4.0 mph6.4 kmh 29.99 in1015.6 mb 0.00 in0.0 mm 0.00 in0.0 mm 0.08 in2.0 mm
09:30 PM 70.5°F21.4°C 55.0°F12.8°C 58% Calm Calm 3.0 mph4.8 kmh 30.00 in1015.9 mb 0.00 in0.0 mm 0.00 in0.0 mm 0.08 in2.0 mm
09:35 PM 70.4°F21.3°C 55.4°F13.0°C 59% 1.0 mph WSW1.6 kmh WSW 3.0 mph4.8 kmh 30.00 in1015.9 mb 0.00 in0.0 mm 0.00 in0.0 mm 0.08 in2.0 mm
09:40 PM 70.4°F21.3°C 55.4°F13.0°C 59% Calm Calm 3.0 mph4.8 kmh 30.00 in1015.9 mb 0.00 in0.0 mm 0.00 in0.0 mm 0.08 in2.0 mm
09:45 PM 70.3°F21.3°C 56.2°F13.4°C 61% Calm Calm -- 30.00 in1015.9 mb 0.00 in0.0 mm 0.00 in0.0 mm 0.08 in2.0 mm
09:50 PM 70.2°F21.2°C 56.1°F13.4°C 61% 1.0 mph WSW1.6 kmh WSW 2.0 mph3.2 kmh 30.00 in1015.9 mb 0.00 in0.0 mm 0.00 in0.0 mm 0.08 in2.0 mm
09:55 PM 70.1°F21.2°C 56.5°F13.6°C 62% 1.0 mph WSW1.6 kmh WSW 2.0 mph3.2 kmh 30.00 in1015.9 mb 0.00 in0.0 mm 0.00 in0.0 mm 0.08 in2.0 mm
10:00 PM 69.9°F21.1°C 58.0°F14.4°C 66% 4.0 mph WSW6.4 kmh WSW 6.0 mph9.7 kmh 30.00 in1015.9 mb 0.00 in0.0 mm 0.00 in0.0 mm 0.08 in2.0 mm
10:05 PM 69.6°F20.9°C 56.5°F13.6°C 63% 2.0 mph WSW3.2 kmh WSW 6.0 mph9.7 kmh 30.01 in1016.3 mb 0.00 in0.0 mm 0.00 in0.0 mm 0.08 in2.0 mm
10:10 PM 69.4°F20.8°C 55.8°F13.2°C 62% 2.0 mph WSW3.2 kmh WSW 6.0 mph9.7 kmh 30.01 in1016.3 mb 0.00 in0.0 mm 0.00 in0.0 mm 0.08 in2.0 mm
10:15 PM 69.2°F20.7°C 55.6°F13.1°C 62% 2.0 mph WSW3.2 kmh WSW 2.0 mph3.2 kmh 30.01 in1016.3 mb 0.00 in0.0 mm 0.00 in0.0 mm 0.08 in2.0 mm
10:20 PM 69.1°F20.6°C 56.0°F13.3°C 63% 1.0 mph WSW1.6 kmh WSW 2.0 mph3.2 kmh 30.01 in1016.3 mb 0.00 in0.0 mm 0.00 in0.0 mm 0.08 in2.0 mm
10:25 PM 69.0°F20.6°C 56.8°F13.8°C 65% 1.0 mph WSW1.6 kmh WSW 2.0 mph3.2 kmh 30.01 in1016.3 mb 0.00 in0.0 mm 0.00 in0.0 mm 0.08 in2.0 mm
10:30 PM 68.7°F20.4°C 55.6°F13.1°C 63% 2.0 mph WSW3.2 kmh WSW 4.0 mph6.4 kmh 30.01 in1016.3 mb 0.00 in0.0 mm 0.00 in0.0 mm 0.08 in2.0 mm
10:35 PM 68.6°F20.3°C 55.5°F13.1°C 63% 3.0 mph WSW4.8 kmh WSW 6.0 mph9.7 kmh 30.01 in1016.3 mb 0.00 in0.0 mm 0.00 in0.0 mm 0.08 in2.0 mm
10:40 PM 68.5°F20.3°C 55.4°F13.0°C 63% 1.0 mph WSW1.6 kmh WSW 6.0 mph9.7 kmh 30.01 in1016.3 mb 0.00 in0.0 mm 0.00 in0.0 mm 0.08 in2.0 mm
10:45 PM 68.5°F20.3°C 56.3°F13.5°C 65% 1.0 mph WSW1.6 kmh WSW 2.0 mph3.2 kmh 30.01 in1016.3 mb 0.00 in0.0 mm 0.00 in0.0 mm 0.08 in2.0 mm
10:50 PM 68.5°F20.3°C 56.3°F13.5°C 65% 1.0 mph WSW1.6 kmh WSW 2.0 mph3.2 kmh 30.01 in1016.3 mb 0.00 in0.0 mm 0.00 in0.0 mm 0.08 in2.0 mm
10:55 PM 68.5°F20.3°C 57.1°F13.9°C 67% 2.0 mph WSW3.2 kmh WSW 3.0 mph4.8 kmh 30.01 in1016.3 mb 0.00 in0.0 mm 0.00 in0.0 mm 0.08 in2.0 mm
11:00 PM 68.6°F20.3°C 58.8°F14.9°C 71% 2.0 mph WSW3.2 kmh WSW 3.0 mph4.8 kmh 30.02 in1016.6 mb 0.00 in0.0 mm 0.00 in0.0 mm 0.08 in2.0 mm
11:05 PM 68.6°F20.3°C 60.0°F15.6°C 74% Calm Calm 3.0 mph4.8 kmh 30.02 in1016.6 mb 0.00 in0.0 mm 0.00 in0.0 mm 0.08 in2.0 mm
11:10 PM 68.5°F20.3°C 59.9°F15.5°C 74% Calm Calm 3.0 mph4.8 kmh 30.01 in1016.3 mb 0.00 in0.0 mm 0.00 in0.0 mm 0.08 in2.0 mm
11:15 PM 68.2°F20.1°C 59.6°F15.3°C 74% Calm Calm -- 30.01 in1016.3 mb 0.00 in0.0 mm 0.00 in0.0 mm 0.08 in2.0 mm
11:20 PM 67.9°F19.9°C 59.3°F15.2°C 74% Calm Calm -- 30.01 in1016.3 mb 0.00 in0.0 mm 0.00 in0.0 mm 0.08 in2.0 mm
11:25 PM 67.7°F19.8°C 59.1°F15.1°C 74% Calm Calm -- 30.01 in1016.3 mb 0.00 in0.0 mm 0.00 in0.0 mm 0.08 in2.0 mm
11:30 PM 67.3°F19.6°C 58.4°F14.7°C 73% Calm Calm -- 30.01 in1016.3 mb 0.00 in0.0 mm 0.00 in0.0 mm 0.08 in2.0 mm
11:35 PM 67.0°F19.4°C 58.1°F14.5°C 73% Calm Calm -- 30.01 in1016.3 mb 0.00 in0.0 mm 0.00 in0.0 mm 0.08 in2.0 mm
11:40 PM 66.8°F19.3°C 58.3°F14.6°C 74% 1.0 mph WSW1.6 kmh WSW 3.0 mph4.8 kmh 30.02 in1016.6 mb 0.00 in0.0 mm 0.00 in0.0 mm 0.08 in2.0 mm
11:45 PM 66.7°F19.3°C 57.8°F14.3°C 73% 1.0 mph WSW1.6 kmh WSW 3.0 mph4.8 kmh 30.01 in1016.3 mb 0.00 in0.0 mm 0.00 in0.0 mm 0.08 in2.0 mm
11:50 PM 66.9°F19.4°C 59.5°F15.3°C 77% 2.0 mph WSW3.2 kmh WSW 3.0 mph4.8 kmh 30.02 in1016.6 mb 0.00 in0.0 mm 0.00 in0.0 mm 0.08 in2.0 mm
11:55 PM 66.8°F19.3°C 57.5°F14.2°C 72% 3.0 mph WSW4.8 kmh WSW 4.0 mph6.4 kmh 30.02 in1016.6 mb 0.00 in0.0 mm 0.00 in0.0 mm 0.08 in2.0 mm